sensor_id;sensor_type;location;lat;lon;timestamp;P1;durP1;ratioP1;P2;durP2;ratioP2
77880;SDS011;67077;50.298;18.996;2024-02-26T00:02:09;51.10;;;23.20;;
77880;SDS011;67077;50.298;18.996;2024-02-26T00:04:37;46.60;;;22.30;;
77880;SDS011;67077;50.298;18.996;2024-02-26T00:07:04;42.70;;;20.00;;
77880;SDS011;67077;50.298;18.996;2024-02-26T00:09:32;40.30;;;20.30;;
77880;SDS011;67077;50.298;18.996;2024-02-26T00:12:03;47.10;;;20.70;;
77880;SDS011;67077;50.298;18.996;2024-02-26T00:14:32;40.60;;;20.00;;
77880;SDS011;67077;50.298;18.996;2024-02-26T00:17:00;50.00;;;21.60;;
77880;SDS011;67077;50.298;18.996;2024-02-26T00:19:28;42.80;;;19.60;;
77880;SDS011;67077;50.298;18.996;2024-02-26T00:21:56;39.40;;;19.10;;
77880;SDS011;67077;50.298;18.996;2024-02-26T00:24:25;41.90;;;18.10;;
77880;SDS011;67077;50.298;18.996;2024-02-26T00:26:52;38.10;;;18.30;;
77880;SDS011;67077;50.298;18.996;2024-02-26T00:29:22;38.00;;;18.00;;
77880;SDS011;67077;50.298;18.996;2024-02-26T00:31:50;37.10;;;18.30;;
77880;SDS011;67077;50.298;18.996;2024-02-26T00:34:18;39.60;;;18.90;;
77880;SDS011;67077;50.298;18.996;2024-02-26T00:36:46;40.40;;;18.60;;
77880;SDS011;67077;50.298;18.996;2024-02-26T00:39:13;39.70;;;19.60;;
77880;SDS011;67077;50.298;18.996;2024-02-26T00:41:41;38.90;;;19.00;;
77880;SDS011;67077;50.298;18.996;2024-02-26T00:44:11;36.20;;;18.30;;
77880;SDS011;67077;50.298;18.996;2024-02-26T00:46:39;36.70;;;18.10;;
77880;SDS011;67077;50.298;18.996;2024-02-26T00:49:07;35.90;;;17.80;;
77880;SDS011;67077;50.298;18.996;2024-02-26T00:51:34;36.50;;;18.30;;
77880;SDS011;67077;50.298;18.996;2024-02-26T00:54:02;35.50;;;18.20;;
77880;SDS011;67077;50.298;18.996;2024-02-26T00:56:32;35.80;;;17.60;;
77880;SDS011;67077;50.298;18.996;2024-02-26T00:59:00;35.40;;;17.60;;
77880;SDS011;67077;50.298;18.996;2024-02-26T01:01:28;34.30;;;16.50;;
77880;SDS011;67077;50.298;18.996;2024-02-26T01:03:56;39.40;;;18.30;;
77880;SDS011;67077;50.298;18.996;2024-02-26T01:06:25;41.40;;;18.80;;
77880;SDS011;67077;50.298;18.996;2024-02-26T01:08:52;43.20;;;20.20;;
77880;SDS011;67077;50.298;18.996;2024-02-26T01:11:20;41.30;;;20.70;;
77880;SDS011;67077;50.298;18.996;2024-02-26T01:13:48;43.10;;;21.10;;
77880;SDS011;67077;50.298;18.996;2024-02-26T01:16:20;44.40;;;21.40;;
77880;SDS011;67077;50.298;18.996;2024-02-26T01:18:48;43.80;;;22.20;;
77880;SDS011;67077;50.298;18.996;2024-02-26T01:21:16;41.60;;;22.00;;
77880;SDS011;67077;50.298;18.996;2024-02-26T01:23:44;41.30;;;21.10;;
77880;SDS011;67077;50.298;18.996;2024-02-26T01:26:12;42.50;;;21.30;;
77880;SDS011;67077;50.298;18.996;2024-02-26T01:28:39;44.10;;;20.90;;
77880;SDS011;67077;50.298;18.996;2024-02-26T01:31:09;40.30;;;20.90;;
77880;SDS011;67077;50.298;18.996;2024-02-26T01:33:37;41.50;;;21.50;;
77880;SDS011;67077;50.298;18.996;2024-02-26T01:36:05;39.20;;;19.80;;
77880;SDS011;67077;50.298;18.996;2024-02-26T01:38:33;39.00;;;20.30;;
77880;SDS011;67077;50.298;18.996;2024-02-26T01:41:01;42.30;;;19.50;;
77880;SDS011;67077;50.298;18.996;2024-02-26T01:43:29;38.90;;;19.50;;
77880;SDS011;67077;50.298;18.996;2024-02-26T01:45:58;37.80;;;19.70;;
77880;SDS011;67077;50.298;18.996;2024-02-26T01:48:26;35.70;;;18.10;;
77880;SDS011;67077;50.298;18.996;2024-02-26T01:50:54;37.70;;;19.50;;
77880;SDS011;67077;50.298;18.996;2024-02-26T01:53:22;37.60;;;19.60;;
77880;SDS011;67077;50.298;18.996;2024-02-26T01:55:50;35.10;;;18.20;;
77880;SDS011;67077;50.298;18.996;2024-02-26T01:58:18;33.80;;;18.00;;
77880;SDS011;67077;50.298;18.996;2024-02-26T02:00:46;36.00;;;16.80;;
77880;SDS011;67077;50.298;18.996;2024-02-26T02:03:14;32.00;;;16.20;;
77880;SDS011;67077;50.298;18.996;2024-02-26T02:05:42;33.30;;;16.00;;
77880;SDS011;67077;50.298;18.996;2024-02-26T02:08:10;31.40;;;16.20;;
77880;SDS011;67077;50.298;18.996;2024-02-26T02:10:44;36.30;;;17.60;;
77880;SDS011;67077;50.298;18.996;2024-02-26T02:13:15;32.90;;;16.80;;
77880;SDS011;67077;50.298;18.996;2024-02-26T02:15:43;33.60;;;16.30;;
77880;SDS011;67077;50.298;18.996;2024-02-26T02:18:11;28.00;;;15.10;;
77880;SDS011;67077;50.298;18.996;2024-02-26T02:20:38;29.60;;;15.50;;
77880;SDS011;67077;50.298;18.996;2024-02-26T02:23:06;30.50;;;15.70;;
77880;SDS011;67077;50.298;18.996;2024-02-26T02:25:34;30.00;;;15.80;;
77880;SDS011;67077;50.298;18.996;2024-02-26T02:28:02;28.40;;;14.70;;
77880;SDS011;67077;50.298;18.996;2024-02-26T02:30:30;34.00;;;16.00;;
77880;SDS011;67077;50.298;18.996;2024-02-26T02:33:00;30.70;;;15.80;;
77880;SDS011;67077;50.298;18.996;2024-02-26T02:35:28;33.90;;;15.60;;
77880;SDS011;67077;50.298;18.996;2024-02-26T02:37:56;31.20;;;16.20;;
77880;SDS011;67077;50.298;18.996;2024-02-26T02:40:25;31.50;;;16.80;;
77880;SDS011;67077;50.298;18.996;2024-02-26T02:42:53;34.50;;;17.40;;
77880;SDS011;67077;50.298;18.996;2024-02-26T02:45:21;35.10;;;17.50;;
77880;SDS011;67077;50.298;18.996;2024-02-26T02:47:49;38.00;;;18.70;;
77880;SDS011;67077;50.298;18.996;2024-02-26T02:50:17;39.50;;;19.70;;
77880;SDS011;67077;50.298;18.996;2024-02-26T02:52:45;37.00;;;18.90;;
77880;SDS011;67077;50.298;18.996;2024-02-26T02:55:13;38.30;;;19.30;;
77880;SDS011;67077;50.298;18.996;2024-02-26T02:57:41;37.20;;;19.20;;
77880;SDS011;67077;50.298;18.996;2024-02-26T03:00:10;35.90;;;18.40;;
77880;SDS011;67077;50.298;18.996;2024-02-26T03:02:38;35.50;;;18.60;;
77880;SDS011;67077;50.298;18.996;2024-02-26T03:05:06;35.20;;;18.60;;
77880;SDS011;67077;50.298;18.996;2024-02-26T03:07:34;34.70;;;17.60;;
77880;SDS011;67077;50.298;18.996;2024-02-26T03:10:02;37.00;;;17.80;;
77880;SDS011;67077;50.298;18.996;2024-02-26T03:12:31;33.20;;;17.30;;
77880;SDS011;67077;50.298;18.996;2024-02-26T03:15:01;32.70;;;17.80;;
77880;SDS011;67077;50.298;18.996;2024-02-26T03:17:32;36.70;;;17.60;;
77880;SDS011;67077;50.298;18.996;2024-02-26T03:20:00;33.20;;;16.70;;
77880;SDS011;67077;50.298;18.996;2024-02-26T03:22:28;32.70;;;17.20;;
77880;SDS011;67077;50.298;18.996;2024-02-26T03:24:57;32.70;;;16.90;;
77880;SDS011;67077;50.298;18.996;2024-02-26T03:27:25;34.00;;;18.00;;
77880;SDS011;67077;50.298;18.996;2024-02-26T03:29:52;33.40;;;17.80;;
77880;SDS011;67077;50.298;18.996;2024-02-26T03:32:20;38.60;;;20.70;;
77880;SDS011;67077;50.298;18.996;2024-02-26T03:34:48;43.00;;;20.80;;
77880;SDS011;67077;50.298;18.996;2024-02-26T03:37:16;38.10;;;20.50;;
77880;SDS011;67077;50.298;18.996;2024-02-26T03:39:44;37.70;;;19.40;;
77880;SDS011;67077;50.298;18.996;2024-02-26T03:42:12;38.20;;;18.20;;
77880;SDS011;67077;50.298;18.996;2024-02-26T03:44:39;35.00;;;17.40;;
77880;SDS011;67077;50.298;18.996;2024-02-26T03:47:07;40.20;;;20.20;;
77880;SDS011;67077;50.298;18.996;2024-02-26T03:49:35;41.00;;;20.60;;
77880;SDS011;67077;50.298;18.996;2024-02-26T03:52:03;43.10;;;22.20;;
77880;SDS011;67077;50.298;18.996;2024-02-26T03:54:31;42.70;;;22.30;;
77880;SDS011;67077;50.298;18.996;2024-02-26T03:56:59;43.50;;;21.90;;
77880;SDS011;67077;50.298;18.996;2024-02-26T03:59:26;44.40;;;22.80;;
77880;SDS011;67077;50.298;18.996;2024-02-26T04:01:54;43.40;;;23.10;;
77880;SDS011;67077;50.298;18.996;2024-02-26T04:04:22;41.60;;;22.90;;
77880;SDS011;67077;50.298;18.996;2024-02-26T04:06:50;48.90;;;23.30;;
77880;SDS011;67077;50.298;18.996;2024-02-26T04:09:18;40.60;;;22.00;;
77880;SDS011;67077;50.298;18.996;2024-02-26T04:11:45;39.30;;;21.40;;
77880;SDS011;67077;50.298;18.996;2024-02-26T04:14:13;41.20;;;20.60;;
77880;SDS011;67077;50.298;18.996;2024-02-26T04:16:41;40.10;;;20.60;;
77880;SDS011;67077;50.298;18.996;2024-02-26T04:19:09;39.10;;;19.50;;
77880;SDS011;67077;50.298;18.996;2024-02-26T04:21:37;37.20;;;18.90;;
77880;SDS011;67077;50.298;18.996;2024-02-26T04:24:05;34.10;;;19.10;;
77880;SDS011;67077;50.298;18.996;2024-02-26T04:26:32;32.40;;;18.30;;
77880;SDS011;67077;50.298;18.996;2024-02-26T04:29:01;35.50;;;18.50;;
77880;SDS011;67077;50.298;18.996;2024-02-26T04:31:28;34.10;;;18.50;;
77880;SDS011;67077;50.298;18.996;2024-02-26T04:33:57;37.20;;;18.40;;
77880;SDS011;67077;50.298;18.996;2024-02-26T04:36:25;35.40;;;18.30;;
77880;SDS011;67077;50.298;18.996;2024-02-26T04:38:53;37.70;;;19.90;;
77880;SDS011;67077;50.298;18.996;2024-02-26T04:41:24;37.80;;;19.70;;
77880;SDS011;67077;50.298;18.996;2024-02-26T04:43:52;41.00;;;21.60;;
77880;SDS011;67077;50.298;18.996;2024-02-26T04:46:20;42.10;;;22.90;;
77880;SDS011;67077;50.298;18.996;2024-02-26T04:48:49;44.70;;;23.10;;
77880;SDS011;67077;50.298;18.996;2024-02-26T04:51:17;48.30;;;24.70;;
77880;SDS011;67077;50.298;18.996;2024-02-26T04:53:45;47.30;;;25.20;;
77880;SDS011;67077;50.298;18.996;2024-02-26T04:56:12;53.70;;;27.70;;
77880;SDS011;67077;50.298;18.996;2024-02-26T04:58:41;54.50;;;25.80;;
77880;SDS011;67077;50.298;18.996;2024-02-26T05:01:08;47.30;;;23.30;;
77880;SDS011;67077;50.298;18.996;2024-02-26T05:03:38;46.70;;;23.40;;
77880;SDS011;67077;50.298;18.996;2024-02-26T05:06:06;40.40;;;21.00;;
77880;SDS011;67077;50.298;18.996;2024-02-26T05:08:33;38.80;;;20.30;;
77880;SDS011;67077;50.298;18.996;2024-02-26T05:11:03;37.80;;;18.70;;
77880;SDS011;67077;50.298;18.996;2024-02-26T05:13:31;36.20;;;18.60;;
77880;SDS011;67077;50.298;18.996;2024-02-26T05:15:59;34.70;;;17.50;;
77880;SDS011;67077;50.298;18.996;2024-02-26T05:18:27;35.30;;;17.70;;
77880;SDS011;67077;50.298;18.996;2024-02-26T05:20:55;32.50;;;16.80;;
77880;SDS011;67077;50.298;18.996;2024-02-26T05:23:23;32.70;;;16.70;;
77880;SDS011;67077;50.298;18.996;2024-02-26T05:25:51;31.40;;;16.50;;
77880;SDS011;67077;50.298;18.996;2024-02-26T05:28:19;37.40;;;18.70;;
77880;SDS011;67077;50.298;18.996;2024-02-26T05:30:48;32.30;;;16.70;;
77880;SDS011;67077;50.298;18.996;2024-02-26T05:33:16;34.40;;;17.80;;
77880;SDS011;67077;50.298;18.996;2024-02-26T05:35:43;33.40;;;17.60;;
77880;SDS011;67077;50.298;18.996;2024-02-26T05:38:12;37.20;;;19.50;;
77880;SDS011;67077;50.298;18.996;2024-02-26T05:40:40;36.90;;;19.50;;
77880;SDS011;67077;50.298;18.996;2024-02-26T05:43:07;40.70;;;20.00;;
77880;SDS011;67077;50.298;18.996;2024-02-26T05:45:35;57.10;;;25.00;;
77880;SDS011;67077;50.298;18.996;2024-02-26T05:48:03;47.40;;;22.90;;
77880;SDS011;67077;50.298;18.996;2024-02-26T05:50:31;50.10;;;23.80;;
77880;SDS011;67077;50.298;18.996;2024-02-26T05:52:59;53.80;;;24.40;;
77880;SDS011;67077;50.298;18.996;2024-02-26T05:55:27;60.90;;;26.90;;
77880;SDS011;67077;50.298;18.996;2024-02-26T05:57:57;51.80;;;23.40;;
77880;SDS011;67077;50.298;18.996;2024-02-26T06:00:26;50.70;;;24.00;;
77880;SDS011;67077;50.298;18.996;2024-02-26T06:02:54;49.70;;;24.30;;
77880;SDS011;67077;50.298;18.996;2024-02-26T06:05:22;49.20;;;24.60;;
77880;SDS011;67077;50.298;18.996;2024-02-26T06:07:50;50.00;;;25.60;;
77880;SDS011;67077;50.298;18.996;2024-02-26T06:10:18;52.10;;;24.80;;
77880;SDS011;67077;50.298;18.996;2024-02-26T06:12:48;50.90;;;25.80;;
77880;SDS011;67077;50.298;18.996;2024-02-26T06:15:16;52.20;;;26.20;;
77880;SDS011;67077;50.298;18.996;2024-02-26T06:17:45;53.50;;;26.20;;
77880;SDS011;67077;50.298;18.996;2024-02-26T06:20:13;58.50;;;26.90;;
77880;SDS011;67077;50.298;18.996;2024-02-26T06:22:44;51.80;;;23.60;;
77880;SDS011;67077;50.298;18.996;2024-02-26T06:25:12;53.80;;;24.80;;
77880;SDS011;67077;50.298;18.996;2024-02-26T06:27:40;54.80;;;26.70;;
77880;SDS011;67077;50.298;18.996;2024-02-26T06:30:08;50.80;;;26.40;;
77880;SDS011;67077;50.298;18.996;2024-02-26T06:32:38;52.50;;;25.90;;
77880;SDS011;67077;50.298;18.996;2024-02-26T06:35:07;47.40;;;25.30;;
77880;SDS011;67077;50.298;18.996;2024-02-26T06:37:36;50.20;;;25.70;;
77880;SDS011;67077;50.298;18.996;2024-02-26T06:40:05;49.90;;;24.90;;
77880;SDS011;67077;50.298;18.996;2024-02-26T06:42:33;42.50;;;21.50;;
77880;SDS011;67077;50.298;18.996;2024-02-26T06:45:01;43.20;;;20.40;;
77880;SDS011;67077;50.298;18.996;2024-02-26T06:47:34;43.60;;;20.70;;
77880;SDS011;67077;50.298;18.996;2024-02-26T06:50:01;39.40;;;19.60;;
77880;SDS011;67077;50.298;18.996;2024-02-26T06:52:30;37.60;;;19.50;;
77880;SDS011;67077;50.298;18.996;2024-02-26T06:54:58;35.90;;;19.70;;
77880;SDS011;67077;50.298;18.996;2024-02-26T06:57:26;38.10;;;19.40;;
77880;SDS011;67077;50.298;18.996;2024-02-26T06:59:57;42.60;;;20.40;;
77880;SDS011;67077;50.298;18.996;2024-02-26T07:04:55;39.30;;;18.70;;
77880;SDS011;67077;50.298;18.996;2024-02-26T07:07:24;34.50;;;18.20;;
77880;SDS011;67077;50.298;18.996;2024-02-26T07:09:52;37.50;;;19.20;;
77880;SDS011;67077;50.298;18.996;2024-02-26T07:12:23;43.20;;;19.20;;
77880;SDS011;67077;50.298;18.996;2024-02-26T07:14:51;36.20;;;18.10;;
77880;SDS011;67077;50.298;18.996;2024-02-26T07:17:19;36.20;;;18.60;;
77880;SDS011;67077;50.298;18.996;2024-02-26T07:19:47;37.30;;;19.30;;
77880;SDS011;67077;50.298;18.996;2024-02-26T07:22:15;41.60;;;20.00;;
77880;SDS011;67077;50.298;18.996;2024-02-26T07:24:43;39.90;;;20.00;;
77880;SDS011;67077;50.298;18.996;2024-02-26T07:27:11;44.90;;;20.40;;
77880;SDS011;67077;50.298;18.996;2024-02-26T07:29:39;37.10;;;20.20;;
77880;SDS011;67077;50.298;18.996;2024-02-26T07:32:07;45.40;;;21.20;;
77880;SDS011;67077;50.298;18.996;2024-02-26T07:34:34;42.20;;;20.30;;
77880;SDS011;67077;50.298;18.996;2024-02-26T07:37:03;41.30;;;21.30;;
77880;SDS011;67077;50.298;18.996;2024-02-26T07:39:30;42.80;;;20.30;;
77880;SDS011;67077;50.298;18.996;2024-02-26T07:41:58;47.40;;;21.30;;
77880;SDS011;67077;50.298;18.996;2024-02-26T07:44:30;49.10;;;22.60;;
77880;SDS011;67077;50.298;18.996;2024-02-26T07:46:57;44.10;;;22.50;;
77880;SDS011;67077;50.298;18.996;2024-02-26T07:49:25;47.20;;;22.10;;
77880;SDS011;67077;50.298;18.996;2024-02-26T07:51:53;41.90;;;21.50;;
77880;SDS011;67077;50.298;18.996;2024-02-26T07:54:22;50.40;;;22.80;;
77880;SDS011;67077;50.298;18.996;2024-02-26T07:56:49;45.50;;;21.90;;
77880;SDS011;67077;50.298;18.996;2024-02-26T07:59:17;44.70;;;22.10;;
77880;SDS011;67077;50.298;18.996;2024-02-26T08:01:49;46.80;;;22.70;;
77880;SDS011;67077;50.298;18.996;2024-02-26T08:04:18;50.20;;;22.60;;
77880;SDS011;67077;50.298;18.996;2024-02-26T08:06:47;45.60;;;22.20;;
77880;SDS011;67077;50.298;18.996;2024-02-26T08:09:14;43.10;;;21.40;;
77880;SDS011;67077;50.298;18.996;2024-02-26T08:11:42;39.90;;;19.30;;
77880;SDS011;67077;50.298;18.996;2024-02-26T08:14:12;38.30;;;20.00;;
77880;SDS011;67077;50.298;18.996;2024-02-26T08:16:39;41.10;;;20.20;;
77880;SDS011;67077;50.298;18.996;2024-02-26T08:19:09;32.50;;;17.80;;
77880;SDS011;67077;50.298;18.996;2024-02-26T08:21:40;36.30;;;17.90;;
77880;SDS011;67077;50.298;18.996;2024-02-26T08:24:08;36.60;;;18.40;;
77880;SDS011;67077;50.298;18.996;2024-02-26T08:26:37;36.40;;;17.80;;
77880;SDS011;67077;50.298;18.996;2024-02-26T08:29:05;30.20;;;16.10;;
77880;SDS011;67077;50.298;18.996;2024-02-26T08:31:33;37.50;;;17.00;;
77880;SDS011;67077;50.298;18.996;2024-02-26T08:34:00;32.30;;;16.00;;
77880;SDS011;67077;50.298;18.996;2024-02-26T08:36:29;32.70;;;16.60;;
77880;SDS011;67077;50.298;18.996;2024-02-26T08:38:58;32.40;;;15.40;;
77880;SDS011;67077;50.298;18.996;2024-02-26T08:41:26;31.10;;;14.40;;
77880;SDS011;67077;50.298;18.996;2024-02-26T08:43:54;26.70;;;13.80;;
77880;SDS011;67077;50.298;18.996;2024-02-26T08:46:22;30.60;;;14.10;;
77880;SDS011;67077;50.298;18.996;2024-02-26T08:48:50;31.00;;;15.50;;
77880;SDS011;67077;50.298;18.996;2024-02-26T08:51:17;29.80;;;15.60;;
77880;SDS011;67077;50.298;18.996;2024-02-26T08:53:45;31.60;;;14.90;;
77880;SDS011;67077;50.298;18.996;2024-02-26T08:56:13;28.70;;;14.80;;
77880;SDS011;67077;50.298;18.996;2024-02-26T08:58:44;31.50;;;14.80;;
77880;SDS011;67077;50.298;18.996;2024-02-26T09:01:14;24.80;;;13.20;;
77880;SDS011;67077;50.298;18.996;2024-02-26T09:03:42;26.80;;;13.90;;
77880;SDS011;67077;50.298;18.996;2024-02-26T09:06:10;28.30;;;13.30;;
77880;SDS011;67077;50.298;18.996;2024-02-26T09:08:41;22.00;;;12.70;;
77880;SDS011;67077;50.298;18.996;2024-02-26T09:11:09;22.20;;;12.40;;
77880;SDS011;67077;50.298;18.996;2024-02-26T09:13:38;25.10;;;12.60;;
77880;SDS011;67077;50.298;18.996;2024-02-26T09:16:06;23.60;;;12.10;;
77880;SDS011;67077;50.298;18.996;2024-02-26T09:18:33;22.10;;;12.00;;
77880;SDS011;67077;50.298;18.996;2024-02-26T09:21:04;22.60;;;11.60;;
77880;SDS011;67077;50.298;18.996;2024-02-26T09:23:35;22.40;;;11.50;;
77880;SDS011;67077;50.298;18.996;2024-02-26T09:26:07;24.00;;;10.70;;
77880;SDS011;67077;50.298;18.996;2024-02-26T09:28:35;25.40;;;11.80;;
77880;SDS011;67077;50.298;18.996;2024-02-26T09:31:05;19.50;;;10.90;;
77880;SDS011;67077;50.298;18.996;2024-02-26T09:33:34;23.80;;;12.00;;
77880;SDS011;67077;50.298;18.996;2024-02-26T09:36:03;23.00;;;11.50;;
77880;SDS011;67077;50.298;18.996;2024-02-26T09:38:32;21.30;;;10.90;;
77880;SDS011;67077;50.298;18.996;2024-02-26T09:41:04;23.00;;;12.20;;
77880;SDS011;67077;50.298;18.996;2024-02-26T09:43:34;25.40;;;11.90;;
77880;SDS011;67077;50.298;18.996;2024-02-26T09:46:04;27.70;;;13.40;;
77880;SDS011;67077;50.298;18.996;2024-02-26T09:48:33;31.30;;;13.70;;
77880;SDS011;67077;50.298;18.996;2024-02-26T09:51:02;26.10;;;13.30;;
77880;SDS011;67077;50.298;18.996;2024-02-26T09:53:31;23.00;;;12.60;;
77880;SDS011;67077;50.298;18.996;2024-02-26T09:56:00;24.60;;;12.60;;
77880;SDS011;67077;50.298;18.996;2024-02-26T09:58:28;23.10;;;12.10;;
77880;SDS011;67077;50.298;18.996;2024-02-26T10:00:57;21.40;;;10.90;;
77880;SDS011;67077;50.298;18.996;2024-02-26T10:03:38;22.70;;;10.50;;
77880;SDS011;67077;50.298;18.996;2024-02-26T10:06:08;18.10;;;9.70;;
77880;SDS011;67077;50.298;18.996;2024-02-26T10:08:36;21.00;;;9.90;;
77880;SDS011;67077;50.298;18.996;2024-02-26T10:11:06;21.30;;;9.50;;
77880;SDS011;67077;50.298;18.996;2024-02-26T10:13:35;23.90;;;9.60;;
77880;SDS011;67077;50.298;18.996;2024-02-26T10:16:04;21.40;;;10.80;;
77880;SDS011;67077;50.298;18.996;2024-02-26T10:18:49;21.60;;;11.10;;
77880;SDS011;67077;50.298;18.996;2024-02-26T10:21:22;20.30;;;9.30;;
77880;SDS011;67077;50.298;18.996;2024-02-26T10:23:50;22.20;;;9.00;;
77880;SDS011;67077;50.298;18.996;2024-02-26T10:26:19;17.80;;;8.90;;
77880;SDS011;67077;50.298;18.996;2024-02-26T10:28:47;19.10;;;8.60;;
77880;SDS011;67077;50.298;18.996;2024-02-26T10:31:15;17.00;;;8.30;;
77880;SDS011;67077;50.298;18.996;2024-02-26T10:33:43;17.40;;;8.50;;
77880;SDS011;67077;50.298;18.996;2024-02-26T10:36:12;19.40;;;8.40;;
77880;SDS011;67077;50.298;18.996;2024-02-26T10:38:39;18.50;;;8.10;;
77880;SDS011;67077;50.298;18.996;2024-02-26T10:41:07;17.50;;;7.90;;
77880;SDS011;67077;50.298;18.996;2024-02-26T10:43:42;16.20;;;8.10;;
77880;SDS011;67077;50.298;18.996;2024-02-26T10:46:11;15.50;;;7.80;;
77880;SDS011;67077;50.298;18.996;2024-02-26T10:48:39;15.20;;;7.50;;
77880;SDS011;67077;50.298;18.996;2024-02-26T10:51:08;14.40;;;7.50;;
77880;SDS011;67077;50.298;18.996;2024-02-26T10:53:40;14.40;;;6.70;;
77880;SDS011;67077;50.298;18.996;2024-02-26T10:56:10;12.80;;;5.70;;
77880;SDS011;67077;50.298;18.996;2024-02-26T10:58:40;10.00;;;5.10;;
77880;SDS011;67077;50.298;18.996;2024-02-26T11:01:09;10.90;;;4.70;;
77880;SDS011;67077;50.298;18.996;2024-02-26T11:03:38;8.50;;;3.90;;
77880;SDS011;67077;50.298;18.996;2024-02-26T11:06:08;6.30;;;3.70;;
77880;SDS011;67077;50.298;18.996;2024-02-26T11:08:38;5.40;;;3.40;;
77880;SDS011;67077;50.298;18.996;2024-02-26T11:11:06;5.30;;;3.40;;
77880;SDS011;67077;50.298;18.996;2024-02-26T11:13:35;6.00;;;3.20;;
77880;SDS011;67077;50.298;18.996;2024-02-26T11:18:35;6.30;;;3.00;;
77880;SDS011;67077;50.298;18.996;2024-02-26T11:21:05;6.20;;;3.10;;
77880;SDS011;67077;50.298;18.996;2024-02-26T11:23:36;6.70;;;3.20;;
77880;SDS011;67077;50.298;18.996;2024-02-26T11:26:04;5.40;;;3.10;;
77880;SDS011;67077;50.298;18.996;2024-02-26T11:28:35;5.50;;;3.10;;
77880;SDS011;67077;50.298;18.996;2024-02-26T11:31:04;7.10;;;3.70;;
77880;SDS011;67077;50.298;18.996;2024-02-26T11:33:34;5.70;;;3.60;;
77880;SDS011;67077;50.298;18.996;2024-02-26T11:36:12;8.70;;;4.00;;
77880;SDS011;67077;50.298;18.996;2024-02-26T11:38:41;5.70;;;3.50;;
77880;SDS011;67077;50.298;18.996;2024-02-26T11:41:09;6.00;;;3.30;;
77880;SDS011;67077;50.298;18.996;2024-02-26T11:43:58;8.00;;;3.40;;
77880;SDS011;67077;50.298;18.996;2024-02-26T11:46:29;5.30;;;3.20;;
77880;SDS011;67077;50.298;18.996;2024-02-26T11:49:02;6.40;;;3.30;;
77880;SDS011;67077;50.298;18.996;2024-02-26T11:51:50;5.20;;;3.30;;
77880;SDS011;67077;50.298;18.996;2024-02-26T11:59:51;7.20;;;3.30;;
77880;SDS011;67077;50.298;18.996;2024-02-26T12:05:11;7.90;;;3.30;;
77880;SDS011;67077;50.298;18.996;2024-02-26T12:07:40;6.80;;;3.60;;
77880;SDS011;67077;50.298;18.996;2024-02-26T12:10:13;5.70;;;3.60;;
77880;SDS011;67077;50.298;18.996;2024-02-26T12:12:53;6.00;;;3.30;;
77880;SDS011;67077;50.298;18.996;2024-02-26T12:15:23;9.60;;;3.10;;
77880;SDS011;67077;50.298;18.996;2024-02-26T12:17:51;4.10;;;2.90;;
77880;SDS011;67077;50.298;18.996;2024-02-26T12:20:20;5.40;;;3.00;;
77880;SDS011;67077;50.298;18.996;2024-02-26T12:22:49;5.20;;;3.00;;
77880;SDS011;67077;50.298;18.996;2024-02-26T12:25:21;5.30;;;3.20;;
77880;SDS011;67077;50.298;18.996;2024-02-26T12:27:53;5.30;;;3.00;;
77880;SDS011;67077;50.298;18.996;2024-02-26T12:30:22;6.20;;;3.10;;
77880;SDS011;67077;50.298;18.996;2024-02-26T12:32:52;4.20;;;3.00;;
77880;SDS011;67077;50.298;18.996;2024-02-26T12:35:24;6.40;;;3.30;;
77880;SDS011;67077;50.298;18.996;2024-02-26T12:37:53;7.20;;;3.60;;
77880;SDS011;67077;50.298;18.996;2024-02-26T12:40:21;7.50;;;3.70;;
77880;SDS011;67077;50.298;18.996;2024-02-26T12:42:49;6.40;;;3.50;;
77880;SDS011;67077;50.298;18.996;2024-02-26T12:45:17;7.30;;;3.90;;
77880;SDS011;67077;50.298;18.996;2024-02-26T12:47:45;10.10;;;4.70;;
77880;SDS011;67077;50.298;18.996;2024-02-26T12:50:13;9.40;;;4.00;;
77880;SDS011;67077;50.298;18.996;2024-02-26T12:52:45;10.30;;;3.80;;
77880;SDS011;67077;50.298;18.996;2024-02-26T12:55:15;8.20;;;4.00;;
77880;SDS011;67077;50.298;18.996;2024-02-26T12:57:47;9.20;;;3.90;;
77880;SDS011;67077;50.298;18.996;2024-02-26T13:00:22;6.60;;;3.90;;
77880;SDS011;67077;50.298;18.996;2024-02-26T13:02:52;7.90;;;4.10;;
77880;SDS011;67077;50.298;18.996;2024-02-26T13:05:23;10.20;;;3.90;;
77880;SDS011;67077;50.298;18.996;2024-02-26T13:07:52;6.90;;;4.00;;
77880;SDS011;67077;50.298;18.996;2024-02-26T13:10:20;8.50;;;4.00;;
77880;SDS011;67077;50.298;18.996;2024-02-26T13:12:49;8.50;;;4.20;;
77880;SDS011;67077;50.298;18.996;2024-02-26T13:15:21;7.80;;;4.30;;
77880;SDS011;67077;50.298;18.996;2024-02-26T13:17:49;7.10;;;3.50;;
77880;SDS011;67077;50.298;18.996;2024-02-26T13:20:27;8.10;;;4.00;;
77880;SDS011;67077;50.298;18.996;2024-02-26T13:23:00;10.00;;;3.80;;
77880;SDS011;67077;50.298;18.996;2024-02-26T13:25:32;9.80;;;3.70;;
77880;SDS011;67077;50.298;18.996;2024-02-26T13:28:06;7.70;;;3.30;;
77880;SDS011;67077;50.298;18.996;2024-02-26T13:30:36;6.60;;;3.50;;
77880;SDS011;67077;50.298;18.996;2024-02-26T13:33:08;7.50;;;3.40;;
77880;SDS011;67077;50.298;18.996;2024-02-26T13:35:40;5.50;;;3.30;;
77880;SDS011;67077;50.298;18.996;2024-02-26T13:38:08;10.30;;;3.60;;
77880;SDS011;67077;50.298;18.996;2024-02-26T13:40:38;7.90;;;3.80;;
77880;SDS011;67077;50.298;18.996;2024-02-26T13:43:06;8.00;;;3.40;;
77880;SDS011;67077;50.298;18.996;2024-02-26T13:45:34;9.60;;;3.90;;
77880;SDS011;67077;50.298;18.996;2024-02-26T13:48:04;7.10;;;3.70;;
77880;SDS011;67077;50.298;18.996;2024-02-26T13:50:34;8.10;;;4.20;;
77880;SDS011;67077;50.298;18.996;2024-02-26T13:53:02;7.30;;;4.20;;
77880;SDS011;67077;50.298;18.996;2024-02-26T13:55:30;7.00;;;4.20;;
77880;SDS011;67077;50.298;18.996;2024-02-26T13:57:59;9.10;;;4.10;;
77880;SDS011;67077;50.298;18.996;2024-02-26T14:00:30;9.40;;;4.30;;
77880;SDS011;67077;50.298;18.996;2024-02-26T14:03:01;8.20;;;4.40;;
77880;SDS011;67077;50.298;18.996;2024-02-26T14:05:30;8.80;;;4.50;;
77880;SDS011;67077;50.298;18.996;2024-02-26T14:07:58;11.90;;;4.70;;
77880;SDS011;67077;50.298;18.996;2024-02-26T14:10:26;12.20;;;5.30;;
77880;SDS011;67077;50.298;18.996;2024-02-26T14:12:53;11.50;;;4.80;;
77880;SDS011;67077;50.298;18.996;2024-02-26T14:15:21;13.60;;;5.20;;
77880;SDS011;67077;50.298;18.996;2024-02-26T14:17:49;10.80;;;5.10;;
77880;SDS011;67077;50.298;18.996;2024-02-26T14:20:23;11.60;;;5.20;;
77880;SDS011;67077;50.298;18.996;2024-02-26T14:22:52;13.00;;;5.40;;
77880;SDS011;67077;50.298;18.996;2024-02-26T14:25:23;11.90;;;5.70;;
77880;SDS011;67077;50.298;18.996;2024-02-26T14:27:51;14.40;;;5.90;;
77880;SDS011;67077;50.298;18.996;2024-02-26T14:30:19;10.40;;;6.20;;
77880;SDS011;67077;50.298;18.996;2024-02-26T14:32:47;17.20;;;7.40;;
77880;SDS011;67077;50.298;18.996;2024-02-26T14:35:15;12.50;;;6.20;;
77880;SDS011;67077;50.298;18.996;2024-02-26T14:37:43;13.10;;;6.10;;
77880;SDS011;67077;50.298;18.996;2024-02-26T14:40:13;13.20;;;6.30;;